createdAt,value
2023-02-27T00:02:33.576Z,100583.91
2023-02-27T00:05:37.515Z,100578.75
2023-02-27T00:08:40.751Z,100584.16
2023-02-27T00:11:44.200Z,100581.34
2023-02-27T00:14:47.270Z,100576.94
2023-02-27T00:17:50.953Z,100580.56
2023-02-27T00:20:54.753Z,100574.53
2023-02-27T00:24:00.457Z,100576.53
2023-02-27T00:27:03.751Z,100578.44
2023-02-27T00:30:10.855Z,100597.94
2023-02-27T00:33:14.261Z,100598.03
2023-02-27T00:36:18.460Z,100605.06
2023-02-27T00:39:22.072Z,100614.59
2023-02-27T00:42:25.975Z,100612.72
2023-02-27T00:45:29.473Z,100617.81
2023-02-27T00:48:33.056Z,100611.75
2023-02-27T00:51:37.797Z,100609.19
2023-02-27T00:54:41.539Z,100624.09
2023-02-27T00:57:44.863Z,100623.16
2023-02-27T01:00:48.567Z,100619.41
2023-02-27T01:03:51.798Z,100626.28
2023-02-27T01:06:55.313Z,100622.63
2023-02-27T01:09:59.127Z,100618.12
2023-02-27T01:13:02.919Z,100624.50
2023-02-27T01:16:08.634Z,100630.81
2023-02-27T01:19:12.377Z,100640.63
2023-02-27T01:22:15.981Z,100645.06
2023-02-27T01:25:19.576Z,100646.94
2023-02-27T01:28:23.152Z,100645.19
2023-02-27T01:31:27.397Z,100654.84
2023-02-27T01:34:33.369Z,100652.06
2023-02-27T01:37:38.745Z,100659.97
2023-02-27T01:40:42.839Z,100657.31
2023-02-27T01:44:04.981Z,100664.41
2023-02-27T01:47:08.298Z,100661.72
2023-02-27T01:50:14.296Z,100668.84
2023-02-27T01:53:20.254Z,100658.16
2023-02-27T01:56:29.405Z,100674.81
2023-02-27T01:59:39.931Z,100659.66
2023-02-27T02:02:53.673Z,100667.66
2023-02-27T02:06:00.094Z,100655.31
2023-02-27T02:09:04.667Z,100659.75
2023-02-27T02:12:08.982Z,100656.12
2023-02-27T02:15:12.462Z,100666.75
2023-02-27T02:18:19.419Z,100668.50
2023-02-27T02:21:52.097Z,100671.97
2023-02-27T02:25:21.822Z,100679.16
2023-02-27T02:28:54.905Z,100677.37
2023-02-27T02:32:16.330Z,100675.50
2023-02-27T02:35:47.012Z,100671.88
2023-02-27T02:39:05.463Z,100684.19
2023-02-27T02:42:39.254Z,100690.16
2023-02-27T02:45:52.836Z,100697.22
2023-02-27T02:49:07.369Z,100696.22
2023-02-27T02:52:10.629Z,100695.22
2023-02-27T02:55:24.354Z,100696.88
2023-02-27T02:58:37.420Z,100707.50
2023-02-27T03:01:46.581Z,100692.47
2023-02-27T03:04:58.935Z,100717.12
2023-02-27T03:08:09.110Z,100721.41
2023-02-27T03:11:12.555Z,100718.72
2023-02-27T03:14:27.285Z,100710.66
2023-02-27T03:17:48.793Z,100685.25
2023-02-27T03:20:58.214Z,100715.09
2023-02-27T03:24:04.111Z,100716.06
2023-02-27T03:27:10.087Z,100723.19
2023-02-27T03:30:20.018Z,100726.69
2023-02-27T03:33:31.948Z,100732.03
2023-02-27T03:36:48.676Z,100733.75
2023-02-27T03:40:06.655Z,100733.72
2023-02-27T03:43:33.009Z,100741.66
2023-02-27T03:46:38.420Z,100744.34
2023-02-27T03:49:41.824Z,100754.00
2023-02-27T03:52:46.347Z,100743.47
2023-02-27T03:55:52.402Z,100750.56
2023-02-27T03:58:56.761Z,100756.84
2023-02-27T04:02:02.749Z,100745.31
2023-02-27T04:05:08.268Z,100748.75
2023-02-27T04:08:22.505Z,100747.00
2023-02-27T04:11:52.796Z,100730.38
2023-02-27T04:15:23.631Z,100747.19
2023-02-27T04:18:57.393Z,100748.91
2023-02-27T04:22:00.491Z,100759.63
2023-02-27T04:25:37.117Z,100754.28
2023-02-27T04:29:08.065Z,100755.22
2023-02-27T04:32:21.964Z,100768.66
2023-02-27T04:35:45.470Z,100765.16
2023-02-27T04:38:57.026Z,100773.22
2023-02-27T04:42:04.181Z,100763.63
2023-02-27T04:45:14.293Z,100781.25
2023-02-27T04:48:34.808Z,100786.69
2023-02-27T04:51:52.042Z,100792.97
2023-02-27T04:55:18.030Z,100787.81
2023-02-27T04:58:35.488Z,100787.91
2023-02-27T05:01:43.615Z,100790.63
2023-02-27T05:04:49.858Z,100802.22
2023-02-27T05:08:00.033Z,100804.97
2023-02-27T05:11:12.149Z,100807.59
2023-02-27T05:14:34.879Z,100803.19
2023-02-27T05:17:48.219Z,100810.28
2023-02-27T05:21:09.753Z,100811.19
2023-02-27T05:24:24.467Z,100812.91
2023-02-27T05:27:31.362Z,100825.31
2023-02-27T05:30:44.792Z,100834.19
2023-02-27T05:34:24.352Z,100837.69
2023-02-27T05:37:50.657Z,100852.72
2023-02-27T05:41:22.842Z,100843.78
2023-02-27T05:44:31.276Z,100843.87
2023-02-27T05:47:39.902Z,100849.22
2023-02-27T05:50:46.295Z,100860.69
2023-02-27T05:53:58.493Z,100862.38
2023-02-27T05:57:05.637Z,100867.75
2023-02-27T06:00:12.330Z,100869.53
2023-02-27T06:03:16.989Z,100876.63
2023-02-27T06:06:20.548Z,100885.41
2023-02-27T06:09:25.133Z,100880.00
2023-02-27T06:12:29.641Z,100879.88
2023-02-27T06:15:33.184Z,100892.16
2023-02-27T06:18:36.280Z,100890.28
2023-02-27T06:21:39.894Z,100895.50
2023-02-27T06:24:43.010Z,100892.75
2023-02-27T06:27:46.473Z,100905.97
2023-02-27T06:30:57.451Z,100916.47
2023-02-27T06:34:01.503Z,100900.44
2023-02-27T06:37:04.568Z,100916.22
2023-02-27T06:40:11.857Z,100925.91
2023-02-27T06:43:15.682Z,100918.72
2023-02-27T06:46:19.177Z,100922.16
2023-02-27T06:49:23.432Z,100921.25
2023-02-27T06:52:27.405Z,100935.31
2023-02-27T06:55:30.433Z,100948.53
2023-02-27T06:58:33.866Z,100945.75
2023-02-27T07:01:37.402Z,100951.00
2023-02-27T07:04:41.304Z,100964.19
2023-02-27T07:07:44.699Z,100963.13
2023-02-27T07:10:49.815Z,100968.28
2023-02-27T07:13:53.280Z,100969.94
2023-02-27T07:16:57.652Z,100978.63
2023-02-27T07:20:00.922Z,100966.13
2023-02-27T07:23:04.427Z,100976.53
2023-02-27T07:26:07.854Z,100968.41
2023-02-27T07:29:11.400Z,100971.66
2023-02-27T07:32:14.504Z,100968.69
2023-02-27T07:35:18.737Z,100977.34
2023-02-27T07:38:24.166Z,100977.34
2023-02-27T07:41:30.728Z,100979.78
2023-02-27T07:44:35.845Z,100976.19
2023-02-27T07:47:39.175Z,100979.53
2023-02-27T07:50:42.230Z,100985.59
2023-02-27T07:53:46.245Z,100987.31
2023-02-27T07:56:49.433Z,100988.19
2023-02-27T07:59:52.830Z,100995.88
2023-02-27T08:02:56.205Z,100989.34
2023-02-27T08:06:02.341Z,100999.03
2023-02-27T08:09:06.288Z,100990.03
2023-02-27T08:12:09.756Z,101005.94
2023-02-27T08:15:13.127Z,101007.66
2023-02-27T08:18:16.540Z,101003.47
2023-02-27T08:21:19.719Z,101005.16
2023-02-27T08:24:23.616Z,101009.97
2023-02-27T08:27:26.550Z,101010.47
2023-02-27T08:30:30.174Z,101010.69
2023-02-27T08:33:33.988Z,101015.38
2023-02-27T08:36:37.850Z,101016.81
2023-02-27T08:39:41.188Z,101019.66
2023-02-27T08:42:44.825Z,101026.63
2023-02-27T08:45:48.983Z,101020.09
2023-02-27T08:48:52.814Z,101028.69
2023-02-27T08:51:56.138Z,101036.78
2023-02-27T08:55:00.466Z,101019.94
2023-02-27T08:58:04.953Z,101039.38
2023-02-27T09:01:08.664Z,101047.03
2023-02-27T09:04:12.460Z,101063.16
2023-02-27T09:07:15.779Z,101068.25
2023-02-27T09:10:19.546Z,101056.66
2023-02-27T09:13:22.795Z,101078.44
2023-02-27T09:16:26.116Z,101081.03
2023-02-27T09:19:29.564Z,101089.69
2023-02-27T09:22:32.612Z,101075.81
2023-02-27T09:25:36.661Z,101096.09
2023-02-27T09:28:40.157Z,101099.72
2023-02-27T09:31:43.883Z,101099.28
2023-02-27T09:34:47.130Z,101098.59
2023-02-27T09:37:50.666Z,101086.84
2023-02-27T09:40:56.852Z,101105.75
2023-02-27T09:44:01.774Z,101100.69
2023-02-27T09:47:11.036Z,101088.88
2023-02-27T09:50:25.247Z,101093.63
2023-02-27T09:53:42.361Z,101097.06
2023-02-27T09:56:52.573Z,101092.75
2023-02-27T10:00:02.688Z,101094.03
2023-02-27T10:03:28.859Z,101082.25
2023-02-27T10:06:44.547Z,101076.75
2023-02-27T10:10:04.858Z,101087.06
2023-02-27T10:13:25.985Z,101085.19
2023-02-27T10:16:32.534Z,101084.59
2023-02-27T10:19:37.890Z,101086.41
2023-02-27T10:22:45.932Z,101082.81
2023-02-27T10:25:52.052Z,101078.91
2023-02-27T10:28:55.129Z,101079.06
2023-02-27T10:32:07.427Z,101069.44
2023-02-27T10:35:33.126Z,101078.44
2023-02-27T10:38:41.920Z,101074.59
2023-02-27T10:41:46.912Z,101080.94
2023-02-27T10:44:54.011Z,101075.59
2023-02-27T10:47:58.032Z,101075.75
2023-02-27T10:51:38.366Z,101072.19
2023-02-27T10:54:42.959Z,101071.09
2023-02-27T10:57:47.027Z,101076.09
2023-02-27T11:00:57.268Z,101073.19
2023-02-27T11:04:00.686Z,101068.53
2023-02-27T11:07:09.530Z,101068.97
2023-02-27T11:10:28.534Z,101076.34
2023-02-27T11:13:34.639Z,101076.03
2023-02-27T11:16:53.627Z,101073.69
2023-02-27T11:19:58.112Z,101074.94
2023-02-27T11:23:07.816Z,101076.75
2023-02-27T11:26:20.892Z,101076.75
2023-02-27T11:29:24.289Z,101078.28
2023-02-27T11:32:35.766Z,101085.25
2023-02-27T11:35:39.744Z,101074.19
2023-02-27T11:38:54.261Z,101088.75
2023-02-27T11:42:05.522Z,101090.91
2023-02-27T11:46:24.963Z,101078.13
2023-02-27T11:48:51.040Z,101080.87
2023-02-27T11:52:27.493Z,101075.28
2023-02-27T11:55:32.527Z,101086.66
2023-02-27T11:58:43.061Z,101063.97
2023-02-27T12:01:55.195Z,101081.06
2023-02-27T12:05:32.498Z,101091.84
2023-02-27T12:08:46.479Z,101086.06
2023-02-27T12:11:52.237Z,101069.03
2023-02-27T12:15:05.982Z,101084.66
2023-02-27T12:18:24.092Z,101090.59
2023-02-27T12:21:44.107Z,101091.00
2023-02-27T12:24:53.105Z,101096.66
2023-02-27T12:28:06.420Z,101090.34
2023-02-27T12:31:34.178Z,101085.84
2023-02-27T12:34:46.668Z,101092.06
2023-02-27T12:37:51.265Z,101099.69
2023-02-27T12:41:13.326Z,101092.16
2023-02-27T12:44:26.825Z,101082.41
2023-02-27T12:47:51.796Z,101091.03
2023-02-27T12:51:04.700Z,101093.44
2023-02-27T12:54:16.877Z,101099.19
2023-02-27T12:57:37.403Z,101096.06
2023-02-27T13:00:48.626Z,101113.12
2023-02-27T13:04:13.745Z,101109.75
2023-02-27T13:07:35.983Z,101107.75
2023-02-27T13:10:51.681Z,101105.03
2023-02-27T13:14:02.373Z,101102.78
2023-02-27T13:17:40.210Z,101106.06
2023-02-27T13:20:57.322Z,101109.13
2023-02-27T13:24:15.576Z,101103.28
2023-02-27T13:27:32.548Z,101105.53
2023-02-27T13:30:42.351Z,101101.91
2023-02-27T13:33:59.801Z,101094.97
2023-02-27T13:37:05.802Z,101093.03
2023-02-27T13:40:29.081Z,101102.97
2023-02-27T13:43:51.066Z,101109.69
2023-02-27T13:46:55.049Z,101107.66
2023-02-27T13:50:01.680Z,101108.47
2023-02-27T13:53:18.209Z,101108.34
2023-02-27T13:56:25.111Z,101120.03
2023-02-27T13:59:44.589Z,101113.47
2023-02-27T14:03:09.139Z,101115.41
2023-02-27T14:06:13.058Z,101120.88
2023-02-27T14:09:20.906Z,101116.69
2023-02-27T14:12:44.528Z,101116.94
2023-02-27T14:15:55.381Z,101118.13
2023-02-27T14:19:01.259Z,101111.59
2023-02-27T14:22:16.843Z,101122.16
2023-02-27T14:25:30.711Z,101114.50
2023-02-27T14:28:42.066Z,101123.62
2023-02-27T14:31:46.974Z,101109.81
2023-02-27T14:34:52.264Z,101131.03
2023-02-27T14:38:03.977Z,101123.00
2023-02-27T14:41:29.991Z,101127.53
2023-02-27T14:44:47.338Z,101138.91
2023-02-27T14:47:51.953Z,101111.19
2023-02-27T14:50:58.073Z,101134.59
2023-02-27T14:54:16.241Z,101138.09
2023-02-27T14:57:29.023Z,101137.59
2023-02-27T15:00:37.047Z,101141.91
2023-02-27T15:03:54.500Z,101137.19
2023-02-27T15:06:59.819Z,101138.72
2023-02-27T15:10:06.349Z,101140.69
2023-02-27T15:13:25.168Z,101143.72
2023-02-27T15:16:35.133Z,101154.12
2023-02-27T15:19:47.593Z,101151.06
2023-02-27T15:22:51.356Z,101166.34
2023-02-27T15:25:59.732Z,101171.28
2023-02-27T15:29:05.776Z,101162.78
2023-02-27T15:32:26.372Z,101175.44
2023-02-27T15:35:36.059Z,101178.34
2023-02-27T15:38:40.702Z,101194.62
2023-02-27T15:42:06.904Z,101198.66
2023-02-27T15:45:20.054Z,101203.50
2023-02-27T15:48:24.080Z,101202.16
2023-02-27T15:51:29.167Z,101213.16
2023-02-27T15:54:35.262Z,101213.66
2023-02-27T15:57:38.585Z,101215.12
2023-02-27T16:00:42.636Z,101221.75
2023-02-27T16:03:49.565Z,101228.31
2023-02-27T16:07:06.441Z,101229.75
2023-02-27T16:10:22.259Z,101226.63
2023-02-27T16:13:25.416Z,101242.22
2023-02-27T16:16:36.295Z,101243.63
2023-02-27T16:19:40.712Z,101249.97
2023-02-27T16:23:05.576Z,101254.84
2023-02-27T16:26:32.144Z,101265.72
2023-02-27T16:29:45.100Z,101269.47
2023-02-27T16:32:48.846Z,101266.97
2023-02-27T16:36:13.067Z,101270.63
2023-02-27T16:39:16.423Z,101282.31
2023-02-27T16:42:21.096Z,101274.53
2023-02-27T16:45:29.356Z,101295.81
2023-02-27T16:48:33.292Z,101303.03
2023-02-27T16:51:37.965Z,101310.22
2023-02-27T16:54:41.968Z,101320.94
2023-02-27T16:57:45.317Z,101313.91
2023-02-27T17:00:48.994Z,101321.03
2023-02-27T17:03:53.316Z,101320.16
2023-02-27T17:06:58.862Z,101336.13
2023-02-27T17:10:03.142Z,101341.50
2023-02-27T17:13:07.151Z,101343.25
2023-02-27T17:16:20.404Z,101345.97
2023-02-27T17:19:28.199Z,101335.34
2023-02-27T17:22:35.985Z,101359.28
2023-02-27T17:25:42.463Z,101360.16
2023-02-27T17:28:46.081Z,101368.16
2023-02-27T17:31:50.677Z,101365.50
2023-02-27T17:34:55.709Z,101361.94
2023-02-27T17:38:00.631Z,101374.34
2023-02-27T17:41:10.017Z,101380.50
2023-02-27T17:44:14.135Z,101384.00
2023-02-27T17:47:18.493Z,101389.31
2023-02-27T17:50:32.399Z,101385.75
2023-02-27T17:53:37.574Z,101391.03
2023-02-27T17:56:42.033Z,101378.63
2023-02-27T17:59:46.220Z,101399.84
2023-02-27T18:02:50.965Z,101382.97
2023-02-27T18:05:55.240Z,101409.50
2023-02-27T18:08:59.928Z,101419.47
2023-02-27T18:12:05.942Z,101413.28
2023-02-27T18:15:10.953Z,101410.63
2023-02-27T18:18:15.929Z,101414.16
2023-02-27T18:21:23.228Z,101415.06
2023-02-27T18:24:28.325Z,101418.59
2023-02-27T18:27:33.179Z,101424.81
2023-02-27T18:30:40.259Z,101428.34
2023-02-27T18:33:44.383Z,101437.22
2023-02-27T18:36:52.155Z,101449.59
2023-02-27T18:39:57.668Z,101455.81
2023-02-27T18:43:02.142Z,101463.75
2023-02-27T18:46:07.927Z,101455.78
2023-02-27T18:49:13.285Z,101456.66
2023-02-27T18:52:18.104Z,101476.16
2023-02-27T18:55:22.540Z,101470.81
2023-02-27T18:58:26.187Z,101470.78
2023-02-27T19:01:33.251Z,101463.66
2023-02-27T19:04:37.877Z,101468.91
2023-02-27T19:07:43.210Z,101461.81
2023-02-27T19:10:48.063Z,101482.09
2023-02-27T19:13:53.923Z,101482.97
2023-02-27T19:17:01.003Z,101487.34
2023-02-27T19:20:07.490Z,101492.56
2023-02-27T19:23:15.227Z,101495.13
2023-02-27T19:26:20.405Z,101493.25
2023-02-27T19:29:24.273Z,101514.41
2023-02-27T19:32:35.858Z,101498.37
2023-02-27T19:35:43.177Z,101526.59
2023-02-27T19:38:49.611Z,101534.56
2023-02-27T19:41:54.768Z,101539.78
2023-02-27T19:45:01.444Z,101545.09
2023-02-27T19:48:06.188Z,101553.94
2023-02-27T19:51:13.711Z,101554.81
2023-02-27T19:54:18.326Z,101567.19
2023-02-27T19:57:22.662Z,101559.25
2023-02-27T20:00:27.300Z,101555.72
2023-02-27T20:03:33.079Z,101553.84
2023-02-27T20:06:42.585Z,101549.44
2023-02-27T20:09:47.909Z,101538.78
2023-02-27T20:12:52.738Z,101546.81
2023-02-27T20:16:04.957Z,101551.16
2023-02-27T20:19:15.100Z,101558.97
2023-02-27T20:22:23.450Z,101568.59
2023-02-27T20:25:30.494Z,101568.59
2023-02-27T20:28:36.276Z,101566.91
2023-02-27T20:31:44.839Z,101589.00
2023-02-27T20:34:54.181Z,101578.44
2023-02-27T20:37:59.853Z,101599.59
2023-02-27T20:41:06.130Z,101600.47
2023-02-27T20:44:12.536Z,101601.38
2023-02-27T20:47:17.920Z,101595.31
2023-02-27T20:50:22.149Z,101601.41
2023-02-27T20:53:28.110Z,101597.97
2023-02-27T20:56:38.711Z,101598.06
2023-02-27T20:59:50.722Z,101598.12
2023-02-27T21:02:56.545Z,101602.47
2023-02-27T21:06:00.866Z,101599.87
2023-02-27T21:09:06.804Z,101617.47
2023-02-27T21:12:11.939Z,101627.84
2023-02-27T21:15:15.138Z,101633.09
2023-02-27T21:18:18.864Z,101621.47
2023-02-27T21:21:26.114Z,101628.50
2023-02-27T21:24:32.304Z,101633.59
2023-02-27T21:27:35.652Z,101635.19
2023-02-27T21:30:41.528Z,101635.09
2023-02-27T21:33:46.140Z,101635.09
2023-02-27T21:36:51.118Z,101648.19
2023-02-27T21:39:56.847Z,101634.88
2023-02-27T21:43:00.600Z,101639.97
2023-02-27T21:46:08.227Z,101652.28
2023-02-27T21:49:20.621Z,101656.53
2023-02-27T21:52:23.860Z,101659.22
2023-02-27T21:55:27.427Z,101654.81
2023-02-27T21:58:30.969Z,101635.41
2023-02-27T22:01:35.998Z,101635.53
2023-02-27T22:04:42.429Z,101647.06
2023-02-27T22:07:45.675Z,101648.81
2023-02-27T22:10:49.218Z,101643.28
2023-02-27T22:13:52.751Z,101647.72
2023-02-27T22:16:56.171Z,101633.66
2023-02-27T22:19:59.350Z,101629.19
2023-02-27T22:23:04.202Z,101636.22
2023-02-27T22:26:13.695Z,101629.19
2023-02-27T22:29:17.473Z,101628.31
2023-02-27T22:32:20.761Z,101627.50
2023-02-27T22:35:25.265Z,101642.63
2023-02-27T22:38:29.169Z,101632.09
2023-02-27T22:41:36.976Z,101624.94
2023-02-27T22:44:40.103Z,101635.75
2023-02-27T22:47:44.495Z,101624.25
2023-02-27T22:50:57.026Z,101624.47
2023-02-27T22:54:03.181Z,101627.97
2023-02-27T22:57:06.301Z,101628.00
2023-02-27T23:00:11.804Z,101637.69
2023-02-27T23:03:15.578Z,101628.88
2023-02-27T23:06:22.039Z,101633.34
2023-02-27T23:09:27.331Z,101638.75
2023-02-27T23:12:31.013Z,101630.78
2023-02-27T23:15:35.699Z,101630.00
2023-02-27T23:18:41.013Z,101630.94
2023-02-27T23:21:44.258Z,101633.63
2023-02-27T23:24:48.289Z,101637.22
2023-02-27T23:27:51.411Z,101634.56
2023-02-27T23:30:55.242Z,101633.75
2023-02-27T23:33:58.656Z,101637.37
2023-02-27T23:37:04.532Z,101648.03
2023-02-27T23:40:08.516Z,101640.09
2023-02-27T23:43:31.151Z,101656.87
2023-02-27T23:46:34.287Z,101662.22
2023-02-27T23:49:37.991Z,101664.00
2023-02-27T23:52:41.146Z,101672.91
2023-02-27T23:55:44.725Z,101672.03
2023-02-27T23:58:48.044Z,101669.47
